Terminal Aerodrome Forecast
Issued by NWS Newport/Morehead City, NC

Home | Current Version | Previous Version | Graphics & Text | Print | Product List | Glossary On
Versions: 1 2 3 4 5 6 7 8 9 10 11 12 13 14
000
FTUS42 KMHX 161700
TAFEWN
TAF
KEWN 161721Z 1618/1718 22013G18KT P6SM SKC
     FM161900 22008KT P6SM VCSH BKN030
     FM170300 28009KT P6SM BKN100
     FM170600 31007KT P6SM SKC=

USA.gov is the U.S. government's official web portal to all federal, state and local government web resources and services.